Time;durP1;ratioP1;P1;durP2;ratioP2;P2;SDS_P1;SDS_P2;PMS_P1;PMS_P2;Temp;Humidity;BMP_temperature;BMP_pressure;BME280_temperature;BME280_humidity;BME280_pressure;Samples;Min_cycle;Max_cycle;Signal;HPM_P1;HPM_P2
2022/12/04 00:01:09;;;;;;;23.33;20.17;;;4.70;99.90;;;;;;5007121;28;20039;-79
2022/12/04 00:03:35;;;;;;;25.17;22.42;;;4.70;99.90;;;;;;4975926;28;20484;-79
2022/12/04 00:06:05;;;;;;;27.60;23.77;;;4.80;99.90;;;;;;4990057;28;20034;-79
2022/12/04 00:08:31;;;;;;;26.10;21.30;;;4.80;99.90;;;;;;5008038;28;20030;-79
2022/12/04 00:10:57;;;;;;;13.33;12.03;;;4.80;99.90;;;;;;5008688;28;20518;-79
2022/12/04 00:13:24;;;;;;;25.17;20.57;;;4.70;99.90;;;;;;4999439;28;20043;-80
2022/12/04 00:15:50;;;;;;;25.23;21.63;;;4.70;99.90;;;;;;5006308;28;20027;-79
2022/12/04 00:18:16;;;;;;;25.90;21.73;;;4.70;99.90;;;;;;5008921;28;20033;-80
2022/12/04 00:20:42;;;;;;;31.70;23.50;;;4.70;99.90;;;;;;4973555;28;20022;-80
2022/12/04 00:23:08;;;;;;;28.77;23.27;;;4.70;99.90;;;;;;5007128;28;20046;-79
2022/12/04 00:25:34;;;;;;;23.97;21.37;;;4.70;99.90;;;;;;4969370;28;20115;-79
2022/12/04 00:28:00;;;;;;;26.33;21.47;;;4.60;99.90;;;;;;5001904;28;20034;-79
2022/12/04 00:30:27;;;;;;;43.97;25.17;;;4.60;99.90;;;;;;4990387;28;20045;-79
2022/12/04 00:32:53;;;;;;;27.23;24.07;;;4.60;99.90;;;;;;4992988;28;20403;-79
2022/12/04 00:35:19;;;;;;;24.87;22.13;;;4.60;99.90;;;;;;5006126;28;20030;-80
2022/12/04 00:37:45;;;;;;;16.87;15.13;;;4.60;99.90;;;;;;4990688;28;20050;-80
2022/12/04 00:40:11;;;;;;;27.27;22.50;;;4.50;99.90;;;;;;5007991;28;20030;-79
2022/12/04 00:42:37;;;;;;;25.60;22.27;;;4.50;99.90;;;;;;5022420;28;20032;-79
2022/12/04 00:45:04;;;;;;;29.30;25.37;;;4.50;99.90;;;;;;4991902;28;20043;-80
2022/12/04 00:47:30;;;;;;;27.03;22.57;;;4.60;99.90;;;;;;4975867;28;20099;-79
2022/12/04 00:49:56;;;;;;;24.73;19.60;;;4.70;99.90;;;;;;5024889;28;20042;-79
2022/12/04 00:52:22;;;;;;;28.30;22.47;;;4.60;99.90;;;;;;5006504;28;20045;-79
2022/12/04 00:54:48;;;;;;;26.40;21.80;;;4.60;99.90;;;;;;5007284;28;20391;-79
2022/12/04 00:57:14;;;;;;;30.07;24.90;;;4.60;99.90;;;;;;5034829;28;20026;-79
2022/12/04 00:59:41;;;;;;;27.93;23.37;;;4.70;99.90;;;;;;5007303;28;20041;-80
2022/12/04 01:02:07;;;;;;;26.47;21.27;;;4.80;99.90;;;;;;4992107;28;20035;-80
2022/12/04 01:04:33;;;;;;;27.03;24.03;;;4.80;99.90;;;;;;5022723;28;20395;-80
2022/12/04 01:06:59;;;;;;;30.00;24.43;;;4.70;99.90;;;;;;5007493;28;20030;-79
2022/12/04 01:09:25;;;;;;;20.23;17.63;;;4.70;99.90;;;;;;5007351;28;20392;-79
2022/12/04 01:11:51;;;;;;;24.03;21.17;;;4.60;99.90;;;;;;5016097;28;20054;-79
2022/12/04 01:14:17;;;;;;;26.63;23.17;;;4.50;99.90;;;;;;5004690;28;20499;-79
2022/12/04 01:16:43;;;;;;;25.73;21.80;;;4.50;99.90;;;;;;5003761;28;20528;-80
2022/12/04 01:19:10;;;;;;;27.07;22.17;;;4.50;99.90;;;;;;5008003;28;20380;-79
2022/12/04 01:21:36;;;;;;;27.37;22.47;;;4.60;99.90;;;;;;5004025;28;20488;-79
2022/12/04 01:24:03;;;;;;;29.30;24.17;;;4.50;99.90;;;;;;5002971;28;20038;-80
2022/12/04 01:26:29;;;;;;;28.07;24.13;;;4.50;99.90;;;;;;4991087;28;20046;-79
2022/12/04 01:28:55;;;;;;;27.23;23.37;;;4.50;99.90;;;;;;5006024;28;20041;-79
2022/12/04 01:31:21;;;;;;;28.47;23.53;;;4.50;99.90;;;;;;5002691;28;20054;-79
2022/12/04 01:33:47;;;;;;;32.33;25.73;;;4.40;99.90;;;;;;5016035;28;20046;-80
2022/12/04 01:36:15;;;;;;;28.37;25.27;;;4.40;99.90;;;;;;4974216;28;20031;-79
2022/12/04 01:38:41;;;;;;;26.87;22.93;;;4.40;99.90;;;;;;5002043;28;20038;-80
2022/12/04 01:41:08;;;;;;;29.07;25.80;;;4.30;99.90;;;;;;4985938;28;20031;-79
2022/12/04 01:43:35;;;;;;;28.33;25.33;;;4.40;99.90;;;;;;5003577;28;20034;-79
2022/12/04 01:46:01;;;;;;;31.40;26.57;;;4.40;99.90;;;;;;4988756;28;20046;-79
2022/12/04 01:48:47;;;;;;;27.93;24.70;;;4.40;99.90;;;;;;4973947;28;20034;-79
2022/12/04 01:51:18;;;;;;;30.03;24.93;;;4.30;99.90;;;;;;4955075;28;20043;-79
2022/12/04 01:53:53;;;;;;;33.80;26.70;;;4.30;99.90;;;;;;5016145;28;20328;-79
2022/12/04 01:56:21;;;;;;;33.43;26.93;;;4.30;99.90;;;;;;5007806;28;20034;-79
2022/12/04 01:58:48;;;;;;;34.30;27.97;;;4.40;99.90;;;;;;4974966;28;20030;-80
2022/12/04 02:01:15;;;;;;;36.40;27.90;;;4.40;99.90;;;;;;5006767;28;20506;-79
2022/12/04 02:03:41;;;;;;;30.07;25.03;;;4.30;99.90;;;;;;4991481;28;20038;-80
2022/12/04 02:06:07;;;;;;;34.13;27.67;;;4.30;99.90;;;;;;5005834;28;20393;-79
2022/12/04 02:08:33;;;;;;;31.33;27.93;;;4.30;99.90;;;;;;4957592;28;20051;-80
2022/12/04 02:11:12;;;;;;;35.67;29.67;;;4.30;99.90;;;;;;5007002;28;20038;-79
2022/12/04 02:13:48;;;;;;;35.57;29.40;;;4.40;99.90;;;;;;5005774;28;20054;-79
2022/12/04 02:16:17;;;;;;;33.87;26.70;;;4.40;99.90;;;;;;4990101;28;20031;-80
2022/12/04 02:18:56;;;;;;;36.83;28.93;;;4.40;99.90;;;;;;5006964;28;20049;-79
2022/12/04 02:21:30;;;;;;;38.30;32.03;;;4.30;99.90;;;;;;4991260;28;20042;-80
2022/12/04 02:24:26;;;;;;;37.53;31.00;;;4.40;99.90;;;;;;5026819;28;20034;-80
2022/12/04 02:26:56;;;;;;;38.40;29.90;;;4.40;99.90;;;;;;4993720;28;20283;-79
2022/12/04 02:29:55;;;;;;;32.67;29.13;;;4.50;99.90;;;;;;5007928;28;20053;-80
2022/12/04 02:32:23;;;;;;;32.37;25.50;;;4.40;99.90;;;;;;5015644;28;20035;-80
2022/12/04 02:35:03;;;;;;;32.13;26.43;;;4.30;99.90;;;;;;5009897;28;20057;-79
2022/12/04 02:37:36;;;;;;;31.30;25.53;;;4.20;99.90;;;;;;5009302;28;20472;-79
2022/12/04 02:40:07;;;;;;;35.23;27.53;;;4.20;99.90;;;;;;5001989;28;20034;-80
2022/12/04 02:42:43;;;;;;;35.17;29.42;;;4.10;99.90;;;;;;4971838;28;20061;-79
2022/12/04 02:45:12;;;;;;;36.57;30.37;;;4.20;99.90;;;;;;5001467;28;20468;-80
2022/12/04 02:47:39;;;;;;;35.97;29.03;;;4.20;99.90;;;;;;4993482;28;20042;-79
2022/12/04 02:50:11;;;;;;;39.33;31.13;;;4.30;99.90;;;;;;4988494;28;20038;-79
2022/12/04 02:52:48;;;;;;;39.40;32.53;;;4.20;99.90;;;;;;5009779;28;20031;-79
2022/12/04 02:55:20;;;;;;;39.67;33.63;;;4.30;99.90;;;;;;5020881;28;20038;-79
2022/12/04 02:57:48;;;;;;;33.63;27.27;;;4.30;99.90;;;;;;4984329;28;20034;-78
2022/12/04 03:00:15;;;;;;;41.87;32.73;;;4.30;99.90;;;;;;4999236;28;20379;-79
2022/12/04 03:02:52;;;;;;;35.40;30.20;;;4.20;99.90;;;;;;5006747;28;20522;-79
2022/12/04 03:05:22;;;;;;;34.53;28.63;;;4.30;99.90;;;;;;4997583;28;20035;-78
2022/12/04 03:07:59;;;;;;;37.63;30.97;;;4.20;99.90;;;;;;4988305;28;20030;-79
2022/12/04 03:10:29;;;;;;;28.23;24.13;;;4.20;99.90;;;;;;4973478;28;20030;-79
2022/12/04 03:13:10;;;;;;;34.97;29.23;;;4.10;99.90;;;;;;4966318;28;20034;-80
2022/12/04 03:15:40;;;;;;;30.83;24.87;;;4.10;99.90;;;;;;4972518;28;20027;-79
2022/12/04 03:18:27;;;;;;;24.73;22.07;;;4.10;99.90;;;;;;4971913;28;20030;-79
2022/12/04 03:21:00;;;;;;;37.83;29.03;;;4.00;99.90;;;;;;4998269;28;20395;-79
2022/12/04 03:23:30;;;;;;;35.83;27.70;;;4.10;99.90;;;;;;4992654;28;20044;-79
2022/12/04 03:26:30;;;;;;;34.70;28.00;;;4.00;99.90;;;;;;4975402;28;20571;-79
2022/12/04 03:29:36;;;;;;;32.05;25.85;;;4.10;99.90;;;;;;4975073;28;20039;-79
2022/12/04 03:32:11;;;;;;;27.70;23.67;;;4.00;99.90;;;;;;4981072;28;20039;-79
2022/12/04 03:35:00;;;;;;;37.77;30.70;;;4.00;99.90;;;;;;4970984;28;20058;-79
2022/12/04 03:37:40;;;;;;;36.00;29.47;;;4.00;99.90;;;;;;4971479;28;20042;-79
2022/12/04 03:40:10;;;;;;;40.53;31.80;;;4.00;99.90;;;;;;4956390;28;20515;-79
2022/12/04 03:42:48;;;;;;;33.30;28.57;;;4.00;99.90;;;;;;4972481;28;20054;-79
2022/12/04 03:45:25;;;;;;;32.23;27.90;;;4.00;99.90;;;;;;4983357;28;20481;-78
2022/12/04 03:48:06;;;;;;;28.03;23.30;;;3.90;99.90;;;;;;4988401;28;20539;-79
2022/12/04 03:50:41;;;;;;;38.60;31.75;;;3.80;99.90;;;;;;4953547;28;20047;-79
2022/12/04 03:53:32;;;;;;;40.97;33.80;;;3.80;99.90;;;;;;4969939;28;20040;-79
2022/12/04 03:56:09;;;;;;;37.45;31.85;;;3.90;99.90;;;;;;4953375;28;20113;-78
2022/12/04 03:58:35;;;;;;;40.33;32.90;;;3.90;99.90;;;;;;4971838;28;20035;-79
2022/12/04 04:01:02;;;;;;;39.27;31.87;;;3.90;99.90;;;;;;4954627;28;20035;-79
2022/12/04 04:03:34;;;;;;;33.43;27.77;;;3.90;99.90;;;;;;4967680;28;20142;-78
2022/12/04 04:06:03;;;;;;;43.90;33.70;;;3.80;99.90;;;;;;5007244;28;20038;-78
2022/12/04 04:08:32;;;;;;;38.83;30.93;;;3.80;99.90;;;;;;4977366;28;20050;-78
2022/12/04 04:11:37;;;;;;;32.93;26.23;;;3.90;99.90;;;;;;4976437;28;20033;-79
2022/12/04 04:25:32;;;;;;;24.97;21.23;;;3.70;99.90;;;;;;5014483;28;20487;-78
2022/12/04 04:27:58;;;;;;;30.10;23.83;;;3.70;99.90;;;;;;5027717;28;20038;-79
2022/12/04 04:30:24;;;;;;;38.07;31.23;;;3.70;99.90;;;;;;5026123;28;20395;-79
2022/12/04 04:33:07;;;;;;;28.03;22.07;;;3.70;99.90;;;;;;5010955;28;20157;-78
2022/12/04 04:35:39;;;;;;;43.73;33.23;;;3.60;99.90;;;;;;5012817;28;20042;-78
2022/12/04 04:38:16;;;;;;;46.53;33.67;;;3.60;99.90;;;;;;5009906;28;20033;-79
2022/12/04 04:40:47;;;;;;;44.73;33.97;;;3.70;99.90;;;;;;4994339;28;20395;-79
2022/12/04 04:43:19;;;;;;;44.72;34.67;;;3.70;99.90;;;;;;5010042;28;20442;-78
2022/12/04 04:46:13;;;;;;;45.40;34.17;;;3.70;99.90;;;;;;5001996;28;20026;-78
2022/12/04 04:48:41;;;;;;;44.40;33.13;;;3.80;99.90;;;;;;4986024;28;20042;-78
2022/12/04 04:51:08;;;;;;;44.93;34.63;;;3.90;99.90;;;;;;5007007;28;20082;-78
2022/12/04 04:54:02;;;;;;;38.50;31.53;;;3.80;99.90;;;;;;5006801;28;20406;-78
2022/12/04 04:56:28;;;;;;;170.27;40.07;;;3.80;99.90;;;;;;4972748;28;20038;-79
2022/12/04 04:58:54;;;;;;;38.63;29.90;;;3.80;99.90;;;;;;4989055;28;20038;-78
2022/12/04 05:01:22;;;;;;;39.90;31.07;;;3.80;99.90;;;;;;4989234;28;20057;-78
2022/12/04 05:03:48;;;;;;;41.70;30.73;;;3.80;99.90;;;;;;5005356;28;20033;-79
2022/12/04 05:06:14;;;;;;;43.10;30.57;;;3.80;99.90;;;;;;5003952;28;20277;-80
2022/12/04 05:08:40;;;;;;;30.17;24.13;;;3.80;99.90;;;;;;4973927;28;20476;-78
2022/12/04 05:11:10;;;;;;;43.07;29.67;;;3.70;99.90;;;;;;4985992;28;20040;-79
2022/12/04 05:13:36;;;;;;;34.47;25.67;;;3.70;99.90;;;;;;4959202;28;20053;-80
2022/12/04 05:16:04;;;;;;;36.53;27.10;;;3.70;99.90;;;;;;4975254;28;20030;-79
2022/12/04 05:18:31;;;;;;;32.93;25.60;;;3.60;99.90;;;;;;4992925;28;20037;-79
2022/12/04 05:20:57;;;;;;;31.77;25.37;;;3.60;99.90;;;;;;4970966;28;20027;-79
2022/12/04 05:23:23;;;;;;;36.57;27.07;;;3.50;99.90;;;;;;4975824;28;20499;-79
2022/12/04 05:25:49;;;;;;;35.33;26.37;;;3.50;99.90;;;;;;4991495;28;20050;-80
2022/12/04 05:28:15;;;;;;;36.27;27.30;;;3.50;99.90;;;;;;4992412;28;20502;-79
2022/12/04 05:30:41;;;;;;;46.90;26.80;;;3.50;99.90;;;;;;4959279;28;20041;-79
2022/12/04 05:33:09;;;;;;;38.43;28.40;;;3.50;99.90;;;;;;4993189;28;20388;-79
2022/12/04 05:35:35;;;;;;;40.07;27.80;;;3.50;99.90;;;;;;4992327;28;20042;-79
2022/12/04 05:38:01;;;;;;;35.60;27.57;;;3.60;99.90;;;;;;4991834;28;20045;-79
2022/12/04 05:40:27;;;;;;;33.20;25.33;;;3.50;99.90;;;;;;4991924;28;20391;-79
2022/12/04 05:42:53;;;;;;;38.80;29.10;;;3.50;99.90;;;;;;4991782;28;20027;-79
2022/12/04 05:45:19;;;;;;;46.80;27.40;;;3.50;99.90;;;;;;4991294;28;20476;-79
2022/12/04 05:47:45;;;;;;;43.33;27.67;;;3.40;99.90;;;;;;4991373;28;20041;-79
2022/12/04 05:50:12;;;;;;;36.00;27.17;;;3.40;99.90;;;;;;4990844;28;20467;-79
2022/12/04 05:52:38;;;;;;;37.70;28.33;;;3.40;99.90;;;;;;4973052;28;20034;-78
2022/12/04 05:55:04;;;;;;;40.07;28.40;;;3.40;99.90;;;;;;4991524;28;20093;-78
2022/12/04 05:57:31;;;;;;;39.97;30.33;;;3.40;99.90;;;;;;4980091;28;20042;-79
2022/12/04 05:59:57;;;;;;;43.50;28.60;;;3.50;99.90;;;;;;4982062;28;20395;-78
2022/12/04 06:02:23;;;;;;;51.63;29.87;;;3.50;99.90;;;;;;4978970;28;20026;-79
2022/12/04 06:04:49;;;;;;;46.43;30.17;;;3.50;99.90;;;;;;4939194;28;20074;-79
2022/12/04 06:07:15;;;;;;;37.70;28.27;;;3.50;99.90;;;;;;4971518;28;20031;-79
2022/12/04 06:09:41;;;;;;;27.77;23.30;;;3.40;99.90;;;;;;4992071;28;20027;-78
2022/12/04 06:12:07;;;;;;;33.07;27.93;;;3.40;99.90;;;;;;4975636;28;20035;-79
2022/12/04 06:14:33;;;;;;;40.37;28.30;;;3.30;99.90;;;;;;5000397;28;20041;-78
2022/12/04 06:16:59;;;;;;;37.17;27.73;;;3.30;99.90;;;;;;5007049;28;20026;-79
2022/12/04 06:19:25;;;;;;;64.83;30.37;;;3.30;99.90;;;;;;4979772;28;20053;-79
2022/12/04 06:21:52;;;;;;;34.07;23.67;;;3.40;99.90;;;;;;5026841;28;20467;-79
2022/12/04 06:24:21;;;;;;;38.83;29.10;;;3.40;99.90;;;;;;4961572;28;20399;-79
2022/12/04 06:26:48;;;;;;;41.17;28.30;;;3.30;99.90;;;;;;4996344;28;20050;-79
2022/12/04 06:29:14;;;;;;;37.80;29.20;;;3.20;99.90;;;;;;4979342;28;20474;-80
2022/12/04 06:31:40;;;;;;;41.33;29.60;;;3.30;99.90;;;;;;4993530;28;20038;-79
2022/12/04 06:34:07;;;;;;;40.93;30.90;;;3.30;99.90;;;;;;4994731;28;20038;-79
2022/12/04 06:36:33;;;;;;;42.43;29.70;;;3.30;99.90;;;;;;4992050;28;20041;-79
2022/12/04 06:39:00;;;;;;;42.30;30.57;;;3.40;99.90;;;;;;5001535;28;20041;-79
2022/12/04 06:41:26;;;;;;;40.67;28.63;;;3.30;99.90;;;;;;4994158;28;20387;-79
2022/12/04 06:43:52;;;;;;;48.57;29.33;;;3.30;99.90;;;;;;4994055;28;20042;-79
2022/12/04 06:46:29;;;;;;;37.93;28.37;;;3.30;99.90;;;;;;4977504;28;20046;-79
2022/12/04 06:48:56;;;;;;;41.07;29.67;;;3.30;99.90;;;;;;4971431;28;20376;-79
2022/12/04 06:51:26;;;;;;;44.97;28.27;;;3.20;99.90;;;;;;4977577;28;20049;-79
2022/12/04 06:53:52;;;;;;;45.92;30.95;;;3.20;99.90;;;;;;4990625;28;20035;-79
2022/12/04 06:56:24;;;;;;;47.57;32.03;;;3.30;99.90;;;;;;5021496;28;20033;-78
2022/12/04 06:58:51;;;;;;;50.93;31.50;;;3.30;99.90;;;;;;4970116;28;20038;-78
2022/12/04 07:01:22;;;;;;;48.07;33.47;;;3.30;99.90;;;;;;5010400;28;20031;-79
2022/12/04 07:03:48;;;;;;;47.97;32.85;;;3.40;99.90;;;;;;5010114;28;20387;-79
2022/12/04 07:06:15;;;;;;;47.30;32.00;;;3.50;99.90;;;;;;4993629;28;20034;-79
2022/12/04 07:08:46;;;;;;;50.80;33.63;;;3.50;99.90;;;;;;5009919;28;20038;-79
2022/12/04 07:11:12;;;;;;;43.22;29.27;;;3.50;99.90;;;;;;4994408;28;20042;-80
2022/12/04 07:13:38;;;;;;;24.20;20.83;;;3.40;99.90;;;;;;4994458;28;20038;-79
2022/12/04 07:16:05;;;;;;;22.37;18.57;;;3.30;99.90;;;;;;5009389;28;20041;-79
2022/12/04 07:18:31;;;;;;;45.97;30.27;;;3.30;99.90;;;;;;4994070;28;20038;-79
2022/12/04 07:20:58;;;;;;;41.90;30.27;;;3.20;99.90;;;;;;4980713;28;20042;-79
2022/12/04 07:23:24;;;;;;;41.63;29.37;;;3.20;99.90;;;;;;4977497;28;20055;-79
2022/12/04 07:25:50;;;;;;;45.03;31.27;;;3.40;99.90;;;;;;4994115;28;20038;-79
2022/12/04 07:28:16;;;;;;;35.43;25.40;;;3.40;99.90;;;;;;5010438;28;20057;-79
2022/12/04 07:30:42;;;;;;;47.77;33.47;;;3.40;99.90;;;;;;4986775;28;20035;-79
2022/12/04 07:33:08;;;;;;;46.67;29.67;;;3.40;99.90;;;;;;5007228;28;20034;-79
2022/12/04 07:35:34;;;;;;;41.30;30.60;;;3.50;99.90;;;;;;4975399;28;20042;-79
2022/12/04 07:38:00;;;;;;;46.17;31.37;;;3.40;99.90;;;;;;4973629;28;20066;-78
2022/12/04 07:40:26;;;;;;;44.33;30.80;;;3.50;99.90;;;;;;5006961;28;20035;-79
2022/12/04 07:42:52;;;;;;;43.53;31.43;;;3.40;99.90;;;;;;5007053;28;20049;-79
2022/12/04 07:45:19;;;;;;;47.07;32.60;;;3.40;99.90;;;;;;4990035;28;20038;-79
2022/12/04 07:47:45;;;;;;;49.83;34.00;;;3.40;99.90;;;;;;4984004;28;20041;-78
2022/12/04 07:50:11;;;;;;;43.27;28.20;;;3.50;99.90;;;;;;5008835;28;20030;-79
2022/12/04 07:52:38;;;;;;;46.30;32.33;;;3.50;99.90;;;;;;4993852;28;20042;-79
2022/12/04 07:55:05;;;;;;;37.87;28.20;;;3.50;99.90;;;;;;4993685;28;20506;-80
2022/12/04 07:57:31;;;;;;;41.63;30.50;;;3.50;99.90;;;;;;4969177;28;20045;-79
2022/12/04 07:59:57;;;;;;;48.43;32.57;;;3.40;99.90;;;;;;4990337;28;20046;-79
2022/12/04 08:02:24;;;;;;;42.93;30.17;;;3.40;99.90;;;;;;4989627;28;20507;-78
2022/12/04 08:04:50;;;;;;;47.50;31.03;;;3.50;99.90;;;;;;5001687;28;20387;-78
2022/12/04 08:07:16;;;;;;;38.03;28.60;;;3.50;99.90;;;;;;4993263;28;20042;-78
2022/12/04 08:09:43;;;;;;;42.00;28.67;;;3.40;99.90;;;;;;4988533;28;20038;-79
2022/12/04 08:12:09;;;;;;;48.47;30.80;;;3.40;99.90;;;;;;5009621;28;20030;-79
2022/12/04 08:14:35;;;;;;;43.07;30.40;;;3.50;99.90;;;;;;4989733;28;20042;-80
2022/12/04 08:17:01;;;;;;;46.70;32.37;;;3.60;99.90;;;;;;4973792;28;20476;-79
2022/12/04 08:19:27;;;;;;;48.13;31.93;;;3.60;99.90;;;;;;5004077;28;20045;-79
2022/12/04 08:21:54;;;;;;;130.10;35.57;;;3.60;99.90;;;;;;4988418;28;20034;-79
2022/12/04 08:24:20;;;;;;;16.87;15.47;;;3.80;99.90;;;;;;4989900;28;20480;-79
2022/12/04 08:26:46;;;;;;;44.00;30.00;;;3.70;99.90;;;;;;4957598;28;20061;-79
2022/12/04 08:29:12;;;;;;;36.10;28.00;;;3.60;99.90;;;;;;5008243;28;20030;-78
2022/12/04 08:31:38;;;;;;;43.97;30.53;;;3.60;99.90;;;;;;4995222;28;20049;-79
2022/12/04 08:34:05;;;;;;;45.13;30.43;;;3.50;99.90;;;;;;4968513;28;20038;-80
2022/12/04 08:36:31;;;;;;;47.17;32.00;;;3.60;99.90;;;;;;4982533;28;20035;-78
2022/12/04 08:38:58;;;;;;;44.50;28.97;;;3.70;99.90;;;;;;4975345;28;20024;-79
2022/12/04 08:41:25;;;;;;;40.43;28.20;;;3.70;99.90;;;;;;4976517;28;20444;-79
2022/12/04 08:43:53;;;;;;;48.50;32.27;;;3.60;99.90;;;;;;4973630;28;20460;-78
2022/12/04 08:46:19;;;;;;;40.43;29.47;;;3.70;99.90;;;;;;4993470;28;20035;-78
2022/12/04 08:48:46;;;;;;;50.13;32.33;;;3.70;99.90;;;;;;4972988;28;20034;-80
2022/12/04 08:51:14;;;;;;;51.43;32.73;;;3.80;99.90;;;;;;5022043;28;20031;-79
2022/12/04 08:53:40;;;;;;;51.23;33.63;;;3.80;99.90;;;;;;5021964;28;20038;-78
2022/12/04 08:56:06;;;;;;;55.80;32.20;;;3.80;99.90;;;;;;5014667;28;20037;-78
2022/12/04 08:58:32;;;;;;;48.23;33.07;;;3.90;99.90;;;;;;4964887;28;20031;-78
2022/12/04 09:01:12;;;;;;;50.63;32.90;;;3.80;99.90;;;;;;5000063;28;20401;-78
2022/12/04 09:03:38;;;;;;;49.70;29.77;;;3.80;99.90;;;;;;4970578;28;20023;-79
2022/12/04 09:06:05;;;;;;;41.97;29.43;;;3.80;99.90;;;;;;5002759;28;20395;-79
2022/12/04 09:08:31;;;;;;;38.57;26.23;;;3.80;99.90;;;;;;5004662;28;20023;-78
2022/12/04 09:11:05;;;;;;;42.97;28.70;;;3.80;99.90;;;;;;4988450;28;20038;-78
2022/12/04 09:13:31;;;;;;;45.23;31.70;;;3.80;99.90;;;;;;4987545;28;20476;-78
2022/12/04 09:15:57;;;;;;;51.57;32.17;;;3.70;99.90;;;;;;4969963;28;20054;-78
2022/12/04 09:18:23;;;;;;;44.83;30.23;;;3.70;99.90;;;;;;5003475;28;20027;-78
2022/12/04 09:20:56;;;;;;;47.50;31.67;;;3.80;99.90;;;;;;4981401;28;20073;-78
2022/12/04 09:23:23;;;;;;;52.47;31.23;;;3.90;99.90;;;;;;4988058;28;20053;-78
2022/12/04 09:25:49;;;;;;;55.93;33.37;;;3.90;99.90;;;;;;4970622;28;20219;-78
2022/12/04 09:28:15;;;;;;;52.80;31.67;;;3.90;99.90;;;;;;4978776;28;20085;-77
2022/12/04 09:30:41;;;;;;;48.17;31.80;;;3.90;99.90;;;;;;5011781;28;20022;-78
2022/12/04 09:33:07;;;;;;;48.27;31.77;;;4.00;99.90;;;;;;4999793;28;20037;-79
2022/12/04 09:35:34;;;;;;;49.27;31.37;;;4.00;99.90;;;;;;4957604;28;20081;-79
2022/12/04 09:38:00;;;;;;;53.37;32.50;;;3.90;99.90;;;;;;4979872;28;20395;-78
2022/12/04 09:40:28;;;;;;;49.70;32.03;;;3.90;99.90;;;;;;4991540;28;20038;-78
2022/12/04 09:43:17;;;;;;;26.57;23.07;;;4.00;99.90;;;;;;4990427;28;20027;-79
2022/12/04 09:45:50;;;;;;;47.70;30.53;;;3.90;99.90;;;;;;4978266;28;20037;-79
2022/12/04 09:48:17;;;;;;;37.03;27.57;;;3.90;99.90;;;;;;4959480;28;20053;-79
2022/12/04 09:50:43;;;;;;;51.17;30.93;;;3.90;99.90;;;;;;4955255;28;20510;-79
2022/12/04 09:53:25;;;;;;;45.83;30.93;;;3.90;99.90;;;;;;4980121;28;20052;-78
2022/12/04 09:56:04;;;;;;;48.73;32.43;;;3.90;99.90;;;;;;5009823;28;20434;-76
2022/12/04 09:58:58;;;;;;;48.17;30.63;;;4.00;99.90;;;;;;4978683;28;20053;-78
2022/12/04 10:01:27;;;;;;;51.93;30.83;;;4.00;99.90;;;;;;4989133;28;20042;-79
2022/12/04 10:03:53;;;;;;;50.90;31.37;;;4.00;99.90;;;;;;4957413;28;20407;-79
2022/12/04 10:06:29;;;;;;;48.27;32.00;;;4.00;99.90;;;;;;4982056;28;20042;-78
2022/12/04 10:09:01;;;;;;;54.40;32.33;;;4.10;99.90;;;;;;5007956;28;20038;-79
2022/12/04 10:11:55;;;;;;;55.83;32.03;;;4.10;99.90;;;;;;5003717;28;20102;-78
2022/12/04 10:14:49;;;;;;;51.33;30.10;;;4.10;99.90;;;;;;4989133;28;20049;-78
2022/12/04 10:17:43;;;;;;;55.10;31.47;;;4.00;99.90;;;;;;4994662;28;20038;-79
2022/12/04 10:20:16;;;;;;;52.37;30.63;;;4.00;99.90;;;;;;4972274;28;20042;-79
2022/12/04 10:23:03;;;;;;;47.47;30.10;;;4.00;99.90;;;;;;4973905;28;20419;-79
2022/12/04 10:25:30;;;;;;;51.07;30.37;;;4.00;99.90;;;;;;4974505;28;20411;-79
2022/12/04 10:28:05;;;;;;;44.77;31.80;;;4.00;99.90;;;;;;4958669;28;20045;-78
2022/12/04 10:30:34;;;;;;;55.33;32.57;;;4.00;99.90;;;;;;4973886;28;20038;-78
2022/12/04 10:33:30;;;;;;;50.63;30.67;;;4.00;99.90;;;;;;4970204;28;20055;-79
2022/12/04 10:35:56;;;;;;;48.43;30.47;;;4.00;99.90;;;;;;5003144;28;20062;-79
2022/12/04 10:38:37;;;;;;;47.30;31.37;;;4.00;99.90;;;;;;5007681;28;20030;-79
2022/12/04 10:41:15;;;;;;;52.60;31.60;;;4.00;99.90;;;;;;4991465;28;20038;-79
2022/12/04 10:43:43;;;;;;;40.00;28.60;;;4.00;99.90;;;;;;5006361;28;20034;-79
2022/12/04 10:46:24;;;;;;;40.60;27.93;;;4.10;99.90;;;;;;4984555;28;20372;-78
2022/12/04 10:48:53;;;;;;;59.80;31.58;;;4.00;99.90;;;;;;4958031;28;20043;-80
2022/12/04 10:51:21;;;;;;;51.50;31.23;;;4.10;99.90;;;;;;4987556;28;20080;-79
2022/12/04 10:53:50;;;;;;;58.50;33.13;;;4.00;99.90;;;;;;4950249;28;20046;-79
2022/12/04 10:56:19;;;;;;;61.07;33.53;;;4.00;99.90;;;;;;4958193;28;20069;-79
2022/12/04 10:58:58;;;;;;;43.10;31.57;;;4.10;99.90;;;;;;4958017;28;20031;-79
2022/12/04 11:01:24;;;;;;;59.00;31.90;;;4.10;99.90;;;;;;4995852;28;20046;-79
2022/12/04 11:04:08;;;;;;;57.13;32.27;;;4.10;99.90;;;;;;5002696;28;20031;-80
2022/12/04 11:06:34;;;;;;;52.33;32.43;;;4.10;99.90;;;;;;4995236;28;20030;-80
2022/12/04 11:09:01;;;;;;;58.17;32.73;;;4.10;99.90;;;;;;4969080;28;20038;-80
2022/12/04 11:11:29;;;;;;;57.43;32.53;;;4.20;99.90;;;;;;4991639;28;20037;-78
2022/12/04 11:14:04;;;;;;;56.30;32.53;;;4.20;99.90;;;;;;5007262;28;20035;-79
2022/12/04 11:16:33;;;;;;;58.03;31.27;;;4.30;99.90;;;;;;5002029;28;20046;-78
2022/12/04 11:18:59;;;;;;;62.57;32.83;;;4.30;99.90;;;;;;5009957;28;20026;-82
2022/12/04 11:21:28;;;;;;;50.90;31.83;;;4.30;99.90;;;;;;5024555;28;20787;-79
2022/12/04 11:23:54;;;;;;;60.47;34.53;;;4.30;99.90;;;;;;4991175;28;20022;-88
2022/12/04 11:26:34;;;;;;;62.10;33.17;;;4.20;99.90;;;;;;4975417;28;20527;-87
2022/12/04 11:29:00;;;;;;;61.90;35.17;;;4.20;99.90;;;;;;4989180;28;20034;-85
2022/12/04 11:31:26;;;;;;;60.40;34.00;;;4.30;99.90;;;;;;4973943;28;20039;-83
2022/12/04 11:33:58;;;;;;;58.00;34.13;;;4.30;99.90;;;;;;4974263;28;20035;-84
2022/12/04 11:36:31;;;;;;;52.83;33.73;;;4.40;99.90;;;;;;4997625;28;20054;-84
2022/12/04 11:39:23;;;;;;;53.37;31.30;;;4.40;99.90;;;;;;5022418;28;20471;-84
2022/12/04 11:42:12;;;;;;;59.97;32.73;;;4.40;99.90;;;;;;4970173;28;20050;-82
2022/12/04 11:44:38;;;;;;;66.10;33.37;;;4.40;99.90;;;;;;4990454;28;20038;-85
2022/12/04 11:47:04;;;;;;;64.10;34.60;;;4.30;99.90;;;;;;4989812;28;20496;-83
2022/12/04 11:49:31;;;;;;;62.77;35.70;;;4.40;99.90;;;;;;4977125;28;20049;-85
2022/12/04 11:52:19;;;;;;;77.90;36.97;;;4.40;99.90;;;;;;5007510;28;20042;-85
2022/12/04 11:54:51;;;;;;;60.13;34.33;;;4.40;99.90;;;;;;4994351;28;20041;-86
2022/12/04 11:57:58;;;;;;;73.77;35.40;;;4.50;99.90;;;;;;4996987;28;20046;-85
2022/12/04 12:00:26;;;;;;;69.97;36.63;;;4.50;99.90;;;;;;4979189;28;20031;-85
2022/12/04 12:03:04;;;;;;;58.50;33.30;;;4.60;99.90;;;;;;4992451;28;20026;-84
2022/12/04 12:05:39;;;;;;;59.10;32.57;;;4.50;99.90;;;;;;5010080;28;20059;-83
2022/12/04 12:08:11;;;;;;;59.17;32.77;;;4.50;99.90;;;;;;4993350;28;20041;-83
2022/12/04 12:11:04;;;;;;;57.60;31.93;;;4.50;99.90;;;;;;4992550;28;20042;-83
2022/12/04 12:14:22;;;;;;;50.57;31.43;;;4.50;99.90;;;;;;4957990;28;20046;-82
2022/12/04 12:17:07;;;;;;;57.73;31.63;;;4.50;99.90;;;;;;4976453;28;20034;-82
2022/12/04 12:19:51;;;;;;;49.07;28.53;;;4.60;99.90;;;;;;4981154;28;20038;-83
2022/12/04 12:22:30;;;;;;;66.80;35.57;;;4.60;99.90;;;;;;4993851;28;20034;-84
2022/12/04 12:25:11;;;;;;;46.13;28.50;;;4.60;99.90;;;;;;4975898;28;20522;-82
2022/12/04 12:28:17;;;;;;;51.45;29.65;;;4.60;99.90;;;;;;4992528;28;20042;-84
2022/12/04 12:31:18;;;;;;;56.93;30.67;;;4.50;99.90;;;;;;4988969;28;20378;-81
2022/12/04 12:33:53;;;;;;;63.22;35.08;;;4.60;99.90;;;;;;5006765;28;20031;-84
2022/12/04 12:36:20;;;;;;;63.73;37.73;;;4.60;99.90;;;;;;4960668;28;20046;-82
2022/12/04 12:38:54;;;;;;;65.87;38.10;;;4.70;99.90;;;;;;4950035;28;20047;-83
2022/12/04 12:41:26;;;;;;;62.00;37.20;;;4.70;99.90;;;;;;4988733;28;20038;-85
2022/12/04 12:44:13;;;;;;;60.93;37.80;;;4.70;99.90;;;;;;5007726;28;20030;-85
2022/12/04 12:46:53;;;;;;;59.63;38.27;;;4.80;99.90;;;;;;5008166;28;20419;-83
2022/12/04 12:49:20;;;;;;;76.03;39.05;;;4.90;99.90;;;;;;4994496;28;20041;-85
2022/12/04 12:51:51;;;;;;;59.83;33.10;;;4.80;99.90;;;;;;4975777;28;20042;-84
2022/12/04 12:54:40;;;;;;;67.60;36.63;;;4.80;99.90;;;;;;4976571;28;20030;-83
2022/12/04 12:57:18;;;;;;;55.63;34.50;;;4.80;99.90;;;;;;4986978;28;20118;-82
2022/12/04 12:59:59;;;;;;;62.67;37.97;;;4.80;99.90;;;;;;4991578;28;20035;-82
2022/12/04 13:02:32;;;;;;;58.05;37.15;;;4.90;99.90;;;;;;4974564;28;20042;-83
2022/12/04 13:05:00;;;;;;;61.83;38.57;;;4.90;99.90;;;;;;4991608;28;20046;-82
2022/12/04 13:08:11;;;;;;;65.77;37.27;;;5.00;99.90;;;;;;5006291;28;20468;-82